createdAt,value
2023-02-28T00:00:29.187Z,93.95
2023-02-28T00:02:55.834Z,93.27
2023-02-28T00:05:23.791Z,93.19
2023-02-28T00:07:51.209Z,93.28
2023-02-28T00:10:21.879Z,93.02
2023-02-28T00:12:49.354Z,92.49
2023-02-28T00:15:16.316Z,92.35
2023-02-28T00:17:43.160Z,93.20
2023-02-28T00:20:11.282Z,92.94
2023-02-28T00:22:56.541Z,92.87
2023-02-28T00:25:25.096Z,92.72
2023-02-28T00:27:52.046Z,92.54
2023-02-28T00:30:20.539Z,92.14
2023-02-28T00:32:47.440Z,92.54
2023-02-28T00:35:14.578Z,93.11
2023-02-28T00:37:41.950Z,92.51
2023-02-28T00:40:10.146Z,91.56
2023-02-28T00:42:37.402Z,92.17
2023-02-28T00:45:05.855Z,92.54
2023-02-28T00:47:33.054Z,93.02
2023-02-28T00:50:00.333Z,93.00
2023-02-28T00:52:27.097Z,93.13
2023-02-28T00:54:53.725Z,93.02
2023-02-28T00:57:20.738Z,92.57
2023-02-28T00:59:47.395Z,92.80
2023-02-28T01:02:14.154Z,93.57
2023-02-28T01:04:40.804Z,93.22
2023-02-28T01:07:07.634Z,92.82
2023-02-28T01:09:34.471Z,92.96
2023-02-28T01:12:01.125Z,92.90
2023-02-28T01:14:27.787Z,91.91
2023-02-28T01:16:54.508Z,92.85
2023-02-28T01:19:21.112Z,93.39
2023-02-28T01:21:47.800Z,93.71
2023-02-28T01:24:14.445Z,94.08
2023-02-28T01:26:41.054Z,93.77
2023-02-28T01:29:07.844Z,93.98
2023-02-28T01:31:34.571Z,94.34
2023-02-28T01:34:01.329Z,94.00
2023-02-28T01:36:28.050Z,93.64
2023-02-28T01:38:55.075Z,94.04
2023-02-28T01:41:24.895Z,93.65
2023-02-28T01:43:58.958Z,94.13
2023-02-28T01:46:25.931Z,94.40
2023-02-28T01:48:56.041Z,95.07
2023-02-28T01:51:33.654Z,95.60
2023-02-28T01:54:03.882Z,95.26
2023-02-28T01:56:34.457Z,94.71
2023-02-28T01:59:01.335Z,94.05
2023-02-28T02:01:29.088Z,94.24
2023-02-28T02:03:58.905Z,95.03
2023-02-28T02:06:36.219Z,94.69
2023-02-28T02:09:04.068Z,94.02
2023-02-28T02:11:31.422Z,93.75
2023-02-28T02:14:15.100Z,94.04
2023-02-28T02:17:21.958Z,92.13
2023-02-28T02:20:40.244Z,92.45
2023-02-28T02:23:28.414Z,93.95
2023-02-28T02:26:08.320Z,93.24
2023-02-28T02:28:59.032Z,93.80
2023-02-28T02:32:23.466Z,93.19
2023-02-28T02:35:02.804Z,93.84
2023-02-28T02:37:44.305Z,94.51
2023-02-28T02:40:15.985Z,93.95
2023-02-28T02:42:51.964Z,93.02
2023-02-28T02:45:26.596Z,93.00
2023-02-28T02:47:53.255Z,92.87
2023-02-28T02:50:26.310Z,91.80
2023-02-28T02:52:56.948Z,91.54
2023-02-28T02:55:24.440Z,91.44
2023-02-28T02:57:54.890Z,91.75
2023-02-28T03:00:26.429Z,91.91
2023-02-28T03:02:55.658Z,92.49
2023-02-28T03:05:28.316Z,91.73
2023-02-28T03:07:54.997Z,91.59
2023-02-28T03:10:38.984Z,91.11
2023-02-28T03:13:15.891Z,91.45
2023-02-28T03:16:38.864Z,91.54
2023-02-28T03:19:30.878Z,91.58
2023-02-28T03:22:56.252Z,91.50
2023-02-28T03:26:03.465Z,90.90
2023-02-28T03:29:04.907Z,90.93
2023-02-28T03:31:36.954Z,91.26
2023-02-28T03:34:13.962Z,91.08
2023-02-28T03:36:46.709Z,90.80
2023-02-28T03:39:28.478Z,90.72
2023-02-28T03:42:01.103Z,90.40
2023-02-28T03:44:34.904Z,90.08
2023-02-28T03:47:05.459Z,89.86
2023-02-28T03:49:36.000Z,89.83
2023-02-28T03:52:04.574Z,89.97
2023-02-28T03:54:38.788Z,89.21
2023-02-28T03:57:27.458Z,89.55
2023-02-28T04:00:00.974Z,88.59
2023-02-28T04:02:29.269Z,89.24
2023-02-28T04:04:55.867Z,87.76
2023-02-28T04:07:22.712Z,87.24
2023-02-28T04:09:49.319Z,87.77
2023-02-28T04:12:16.127Z,87.10
2023-02-28T04:14:42.799Z,87.35
2023-02-28T04:17:09.424Z,86.31
2023-02-28T04:19:36.149Z,85.88
2023-02-28T04:22:02.880Z,85.08
2023-02-28T04:24:29.858Z,85.83
2023-02-28T04:26:57.737Z,85.85
2023-02-28T04:29:29.770Z,85.58
2023-02-28T04:32:01.099Z,85.64
2023-02-28T04:34:28.938Z,85.48
2023-02-28T04:37:12.055Z,85.93
2023-02-28T04:39:39.900Z,86.76
2023-02-28T04:42:07.087Z,86.34
2023-02-28T04:44:33.861Z,87.50
2023-02-28T04:47:00.478Z,86.82
2023-02-28T04:49:27.180Z,85.57
2023-02-28T04:51:54.227Z,85.92
2023-02-28T04:54:21.288Z,85.25
2023-02-28T04:56:50.969Z,83.86
2023-02-28T04:59:17.763Z,83.94
2023-02-28T05:01:48.335Z,85.00
2023-02-28T05:04:15.249Z,83.40
2023-02-28T05:06:41.933Z,82.78
2023-02-28T05:09:08.514Z,82.88
2023-02-28T05:11:36.406Z,81.64
2023-02-28T05:14:04.995Z,82.51
2023-02-28T05:16:32.322Z,82.48
2023-02-28T05:18:59.285Z,81.74
2023-02-28T05:21:37.481Z,82.31
2023-02-28T05:24:06.870Z,82.46
2023-02-28T05:26:39.849Z,81.90
2023-02-28T05:29:06.949Z,83.31
2023-02-28T05:31:33.941Z,83.66
2023-02-28T05:34:01.180Z,81.75
2023-02-28T05:36:28.115Z,82.01
2023-02-28T05:38:54.819Z,81.24
2023-02-28T05:41:21.487Z,81.16
2023-02-28T05:43:49.035Z,79.88
2023-02-28T05:46:16.350Z,79.93
2023-02-28T05:48:43.944Z,80.07
2023-02-28T05:51:10.927Z,80.36
2023-02-28T05:53:37.880Z,80.58
2023-02-28T05:56:04.826Z,80.56
2023-02-28T05:58:32.288Z,81.10
2023-02-28T06:00:59.866Z,81.37
2023-02-28T06:03:27.130Z,80.88
2023-02-28T06:05:54.055Z,80.77
2023-02-28T06:08:20.705Z,80.88
2023-02-28T06:10:47.445Z,81.35
2023-02-28T06:13:14.191Z,81.57
2023-02-28T06:15:40.923Z,82.02
2023-02-28T06:18:07.573Z,81.83
2023-02-28T06:20:34.551Z,81.48
2023-02-28T06:23:01.557Z,81.33
2023-02-28T06:25:28.741Z,81.04
2023-02-28T06:27:56.447Z,81.74
2023-02-28T06:30:26.437Z,81.02
2023-02-28T06:32:53.348Z,80.71
2023-02-28T06:35:20.262Z,81.30
2023-02-28T06:37:48.326Z,81.64
2023-02-28T06:40:15.751Z,80.15
2023-02-28T06:42:42.532Z,80.50
2023-02-28T06:45:10.744Z,81.41
2023-02-28T06:47:41.726Z,81.30
2023-02-28T06:50:10.617Z,80.62
2023-02-28T06:52:41.793Z,81.81
2023-02-28T06:55:09.421Z,81.83
2023-02-28T06:57:37.097Z,81.54
2023-02-28T07:00:09.829Z,80.86
2023-02-28T07:02:37.406Z,81.35
2023-02-28T07:05:05.277Z,80.91
2023-02-28T07:07:31.940Z,81.13
2023-02-28T07:09:58.566Z,80.37
2023-02-28T07:12:25.389Z,79.52
2023-02-28T07:14:52.311Z,80.12
2023-02-28T07:17:19.137Z,79.74
2023-02-28T07:19:45.898Z,79.39
2023-02-28T07:22:15.479Z,79.78
2023-02-28T07:24:42.525Z,79.73
2023-02-28T07:27:09.527Z,78.28
2023-02-28T07:29:36.189Z,79.74
2023-02-28T07:32:02.813Z,78.90
2023-02-28T07:34:29.678Z,78.04
2023-02-28T07:36:56.955Z,76.63
2023-02-28T07:39:23.735Z,76.81
2023-02-28T07:41:50.495Z,74.31
2023-02-28T07:44:17.188Z,74.20
2023-02-28T07:46:44.320Z,73.47
2023-02-28T07:49:11.237Z,74.33
2023-02-28T07:51:38.019Z,75.19
2023-02-28T07:54:04.911Z,71.72
2023-02-28T07:56:32.050Z,72.05
2023-02-28T07:58:58.916Z,72.72
2023-02-28T08:01:25.571Z,71.81
2023-02-28T08:03:52.608Z,71.75
2023-02-28T08:06:21.873Z,72.38
2023-02-28T08:08:49.213Z,72.55
2023-02-28T08:11:17.119Z,69.60
2023-02-28T08:13:45.328Z,70.66
2023-02-28T08:16:13.259Z,69.23
2023-02-28T08:18:39.918Z,69.54
2023-02-28T08:21:11.175Z,70.19
2023-02-28T08:23:37.855Z,70.05
2023-02-28T08:26:04.984Z,69.98
2023-02-28T08:28:32.364Z,68.89
2023-02-28T08:30:59.583Z,69.80
2023-02-28T08:33:26.968Z,69.79
2023-02-28T08:35:55.737Z,71.52
2023-02-28T08:38:23.206Z,70.00
2023-02-28T08:40:50.318Z,70.95
2023-02-28T08:43:16.999Z,69.76
2023-02-28T08:45:43.863Z,70.21
2023-02-28T08:48:10.708Z,67.92
2023-02-28T08:50:37.666Z,68.34
2023-02-28T08:53:04.580Z,68.23
2023-02-28T08:55:32.043Z,66.61
2023-02-28T08:57:59.980Z,66.53
2023-02-28T09:00:26.721Z,64.27
2023-02-28T09:02:53.935Z,62.51
2023-02-28T09:05:20.586Z,61.04
2023-02-28T09:07:47.265Z,61.72
2023-02-28T09:10:13.926Z,59.65
2023-02-28T09:12:40.775Z,58.34
2023-02-28T09:15:08.554Z,59.12
2023-02-28T09:17:35.233Z,59.79
2023-02-28T09:20:01.959Z,60.46
2023-02-28T09:22:28.529Z,60.36
2023-02-28T09:24:55.175Z,60.83
2023-02-28T09:27:21.813Z,59.61
2023-02-28T09:29:48.864Z,60.07
2023-02-28T09:32:15.479Z,61.82
2023-02-28T09:34:42.569Z,62.31
2023-02-28T09:37:09.312Z,61.08
2023-02-28T09:39:35.898Z,60.75
2023-02-28T09:42:03.470Z,59.40
2023-02-28T09:44:33.646Z,60.71
2023-02-28T09:47:36.669Z,60.46
2023-02-28T09:50:31.466Z,59.85
2023-02-28T09:52:58.335Z,60.22
2023-02-28T09:55:41.424Z,60.46
2023-02-28T09:58:30.640Z,60.03
2023-02-28T10:01:54.466Z,60.44
2023-02-28T10:04:59.534Z,60.09
2023-02-28T10:10:31.994Z,58.95
2023-02-28T10:18:29.923Z,59.55
2023-02-28T10:20:57.782Z,60.08
2023-02-28T10:23:28.996Z,60.28
2023-02-28T10:26:00.469Z,58.74
2023-02-28T10:28:33.790Z,57.37
2023-02-28T10:31:04.125Z,58.74
2023-02-28T10:33:33.712Z,58.67
2023-02-28T10:36:00.597Z,59.59
2023-02-28T10:38:30.665Z,60.29
2023-02-28T10:41:20.786Z,60.13
2023-02-28T10:43:47.549Z,60.20
2023-02-28T10:46:29.622Z,59.78
2023-02-28T10:49:05.169Z,59.17
2023-02-28T10:51:40.961Z,59.00
2023-02-28T10:54:16.490Z,58.76
2023-02-28T10:56:43.312Z,59.09
2023-02-28T10:59:31.778Z,59.24
2023-02-28T11:01:58.546Z,58.70
2023-02-28T11:04:41.359Z,58.60
2023-02-28T11:07:21.538Z,58.54
2023-02-28T11:09:52.247Z,57.26
2023-02-28T11:12:31.453Z,58.24
2023-02-28T11:15:01.699Z,60.13
2023-02-28T11:17:31.621Z,57.28
2023-02-28T11:20:04.461Z,58.46
2023-02-28T11:22:33.838Z,58.24
2023-02-28T11:25:05.315Z,58.09
2023-02-28T11:27:47.720Z,57.58
2023-02-28T11:30:30.445Z,57.20
2023-02-28T11:32:57.723Z,55.68
2023-02-28T11:35:31.184Z,57.65
2023-02-28T11:37:58.773Z,58.16
2023-02-28T11:40:40.319Z,57.16
2023-02-28T11:43:52.275Z,58.75
2023-02-28T11:46:56.253Z,57.71
2023-02-28T11:49:58.235Z,56.94
2023-02-28T11:52:40.471Z,56.38
2023-02-28T11:55:27.219Z,56.91
2023-02-28T11:58:48.329Z,58.13
2023-02-28T12:01:37.036Z,58.28
2023-02-28T12:04:22.808Z,57.58
2023-02-28T12:07:27.079Z,57.78
2023-02-28T12:10:24.156Z,57.74
2023-02-28T12:13:33.145Z,58.89
2023-02-28T12:16:29.740Z,59.40
2023-02-28T12:19:08.693Z,58.05
2023-02-28T12:21:42.344Z,58.39
2023-02-28T12:24:35.245Z,58.00
2023-02-28T12:27:04.278Z,58.73
2023-02-28T12:29:36.121Z,57.60
2023-02-28T12:32:11.842Z,57.02
2023-02-28T12:34:41.214Z,57.08
2023-02-28T12:37:31.138Z,57.23
2023-02-28T12:40:06.943Z,57.85
2023-02-28T12:42:38.697Z,58.54
2023-02-28T12:45:28.425Z,58.73
2023-02-28T12:48:05.637Z,58.72
2023-02-28T12:50:34.130Z,57.89
2023-02-28T12:53:18.811Z,57.28
2023-02-28T12:56:00.142Z,57.66
2023-02-28T12:59:02.406Z,58.26
2023-02-28T13:01:40.446Z,57.68
2023-02-28T13:04:33.541Z,57.47
2023-02-28T13:07:33.265Z,58.48
2023-02-28T13:10:02.303Z,57.09
2023-02-28T13:12:29.520Z,58.60
2023-02-28T13:15:06.630Z,57.83
2023-02-28T13:17:41.510Z,58.96
2023-02-28T13:20:24.379Z,58.39
2023-02-28T13:22:54.107Z,58.10
2023-02-28T13:25:43.607Z,57.63
2023-02-28T13:28:12.974Z,57.28
2023-02-28T13:31:12.171Z,57.97
2023-02-28T13:34:14.093Z,58.75
2023-02-28T13:36:40.858Z,57.54
2023-02-28T13:39:35.993Z,58.19
2023-02-28T13:42:24.200Z,58.54
2023-02-28T13:45:27.593Z,57.91
2023-02-28T13:48:00.380Z,59.28
2023-02-28T13:50:39.685Z,57.81
2023-02-28T13:53:50.170Z,58.13
2023-02-28T13:56:34.575Z,58.43
2023-02-28T13:59:35.553Z,58.11
2023-02-28T14:02:30.332Z,59.20
2023-02-28T14:05:04.085Z,58.04
2023-02-28T14:07:46.916Z,58.02
2023-02-28T14:10:28.015Z,58.71
2023-02-28T14:12:59.129Z,59.81
2023-02-28T14:15:42.476Z,59.59
2023-02-28T14:18:35.329Z,59.75
2023-02-28T14:21:22.338Z,58.75
2023-02-28T14:24:17.203Z,58.08
2023-02-28T14:27:02.289Z,57.92
2023-02-28T14:30:13.920Z,59.55
2023-02-28T14:33:06.803Z,60.25
2023-02-28T14:35:45.788Z,59.22
2023-02-28T14:38:19.450Z,59.29
2023-02-28T14:40:47.489Z,59.64
2023-02-28T14:43:23.388Z,58.54
2023-02-28T14:45:52.525Z,59.51
2023-02-28T14:48:20.216Z,58.97
2023-02-28T14:50:55.532Z,59.54
2023-02-28T14:53:24.379Z,59.90
2023-02-28T14:55:56.662Z,59.41
2023-02-28T14:58:24.743Z,60.27
2023-02-28T15:00:54.777Z,59.49
2023-02-28T15:03:24.830Z,59.96
2023-02-28T15:05:59.575Z,59.27
2023-02-28T15:08:30.394Z,59.38
2023-02-28T15:11:02.820Z,60.08
2023-02-28T15:13:41.876Z,60.98
2023-02-28T15:16:18.276Z,60.92
2023-02-28T15:18:56.159Z,60.98
2023-02-28T15:21:37.341Z,61.11
2023-02-28T15:24:28.778Z,60.48
2023-02-28T15:26:58.626Z,60.94
2023-02-28T15:29:26.810Z,60.83
2023-02-28T15:32:01.888Z,61.66
2023-02-28T15:34:43.456Z,61.50
2023-02-28T15:37:46.844Z,62.16
2023-02-28T15:40:24.971Z,61.20
2023-02-28T15:43:15.197Z,61.33
2023-02-28T15:45:57.013Z,61.73
2023-02-28T15:48:32.254Z,62.89
2023-02-28T15:51:04.378Z,63.44
2023-02-28T15:53:33.832Z,63.54
2023-02-28T15:56:25.359Z,63.41
2023-02-28T15:58:59.232Z,64.49
2023-02-28T16:01:29.588Z,63.16
2023-02-28T16:03:59.591Z,63.70
2023-02-28T16:06:46.858Z,63.23
2023-02-28T16:09:18.172Z,63.93
2023-02-28T16:11:50.253Z,64.03
2023-02-28T16:14:32.074Z,63.92
2023-02-28T16:17:08.248Z,64.39
2023-02-28T16:19:34.921Z,64.29
2023-02-28T16:22:02.267Z,64.68
2023-02-28T16:24:28.903Z,65.19
2023-02-28T16:26:57.360Z,65.23
2023-02-28T16:29:33.979Z,65.64
2023-02-28T16:32:01.480Z,65.65
2023-02-28T16:34:28.770Z,66.04
2023-02-28T16:36:55.561Z,66.44
2023-02-28T16:39:22.164Z,67.03
2023-02-28T16:41:50.327Z,67.46
2023-02-28T16:44:46.278Z,67.64
2023-02-28T16:47:13.038Z,67.12
2023-02-28T16:49:43.563Z,66.96
2023-02-28T16:52:11.405Z,67.37
2023-02-28T16:54:38.656Z,67.62
2023-02-28T16:57:07.009Z,67.50
2023-02-28T16:59:33.903Z,68.22
2023-02-28T17:02:00.736Z,68.37
2023-02-28T17:04:28.166Z,68.47
2023-02-28T17:06:55.277Z,68.61
2023-02-28T17:09:26.324Z,69.07
2023-02-28T17:11:57.948Z,69.29
2023-02-28T17:14:24.760Z,68.82
2023-02-28T17:16:51.798Z,69.10
2023-02-28T17:19:18.977Z,69.55
2023-02-28T17:21:46.221Z,69.79
2023-02-28T17:24:28.888Z,70.01
2023-02-28T17:26:57.148Z,69.71
2023-02-28T17:29:25.834Z,69.89
2023-02-28T17:31:52.757Z,70.18
2023-02-28T17:34:20.757Z,70.09
2023-02-28T17:36:49.132Z,70.55
2023-02-28T17:39:25.212Z,70.74
2023-02-28T17:41:53.465Z,70.92
2023-02-28T17:44:20.922Z,70.04
2023-02-28T17:46:48.092Z,70.65
2023-02-28T17:49:14.899Z,71.71
2023-02-28T17:51:41.559Z,73.01
2023-02-28T17:54:08.247Z,73.62
2023-02-28T17:56:34.994Z,73.32
2023-02-28T17:59:01.910Z,73.24
2023-02-28T18:01:28.676Z,72.99
2023-02-28T18:03:56.140Z,73.07
2023-02-28T18:06:28.729Z,73.10
2023-02-28T18:08:55.885Z,73.37
2023-02-28T18:11:24.463Z,73.72
2023-02-28T18:13:53.394Z,73.66
2023-02-28T18:16:22.080Z,73.94
2023-02-28T18:18:49.478Z,73.98
2023-02-28T18:21:17.226Z,74.71
2023-02-28T18:23:52.195Z,73.87
2023-02-28T18:26:19.874Z,73.47
2023-02-28T18:28:47.747Z,72.85
2023-02-28T18:31:17.897Z,73.88
2023-02-28T18:33:45.979Z,74.40
2023-02-28T18:36:12.738Z,74.78
2023-02-28T18:38:39.732Z,75.16
2023-02-28T18:41:07.658Z,74.52
2023-02-28T18:43:36.297Z,74.42
2023-02-28T18:46:10.485Z,74.49
2023-02-28T18:48:38.166Z,75.80
2023-02-28T18:51:13.927Z,74.91
2023-02-28T18:53:43.141Z,74.84
2023-02-28T18:56:13.285Z,74.93
2023-02-28T18:58:42.261Z,76.81
2023-02-28T19:01:19.220Z,77.39
2023-02-28T19:03:46.101Z,78.35
2023-02-28T19:06:13.128Z,78.22
2023-02-28T19:08:40.135Z,79.15
2023-02-28T19:11:09.193Z,78.26
2023-02-28T19:13:35.984Z,78.70
2023-02-28T19:16:04.381Z,79.17
2023-02-28T19:18:31.276Z,80.20
2023-02-28T19:20:59.022Z,78.90
2023-02-28T19:23:28.334Z,79.22
2023-02-28T19:25:56.796Z,78.35
2023-02-28T19:28:25.212Z,77.64
2023-02-28T19:30:53.216Z,79.42
2023-02-28T19:33:20.820Z,79.53
2023-02-28T19:35:48.574Z,78.83
2023-02-28T19:38:15.922Z,79.98
2023-02-28T19:40:42.963Z,80.04
2023-02-28T19:43:09.885Z,79.24
2023-02-28T19:45:37.808Z,80.22
2023-02-28T19:48:05.542Z,80.74
2023-02-28T19:50:32.220Z,79.84
2023-02-28T19:53:00.543Z,81.04
2023-02-28T19:55:27.408Z,79.89
2023-02-28T19:57:54.280Z,80.91
2023-02-28T20:00:21.099Z,80.94
2023-02-28T20:02:47.779Z,79.95
2023-02-28T20:05:14.467Z,80.38
2023-02-28T20:07:41.405Z,80.18
2023-02-28T20:10:08.684Z,79.50
2023-02-28T20:12:35.379Z,80.23
2023-02-28T20:15:02.141Z,80.02
2023-02-28T20:17:29.427Z,81.96
2023-02-28T20:19:56.786Z,81.66
2023-02-28T20:22:23.513Z,82.11
2023-02-28T20:24:50.231Z,81.79
2023-02-28T20:27:17.610Z,81.62
2023-02-28T20:29:44.270Z,82.19
2023-02-28T20:32:10.996Z,82.63
2023-02-28T20:34:37.827Z,81.53
2023-02-28T20:37:04.458Z,81.55
2023-02-28T20:39:31.222Z,82.05
2023-02-28T20:41:57.776Z,82.56
2023-02-28T20:44:24.614Z,82.11
2023-02-28T20:46:51.406Z,82.39
2023-02-28T20:49:18.207Z,81.94
2023-02-28T20:51:44.818Z,82.86
2023-02-28T20:54:12.081Z,83.07
2023-02-28T20:56:39.007Z,83.13
2023-02-28T20:59:05.868Z,82.34
2023-02-28T21:01:33.015Z,82.25
2023-02-28T21:04:06.246Z,81.05
2023-02-28T21:06:36.092Z,81.44
2023-02-28T21:09:05.997Z,81.05
2023-02-28T21:11:35.000Z,82.07
2023-02-28T21:14:04.278Z,82.44
2023-02-28T21:16:31.588Z,83.80
2023-02-28T21:19:04.919Z,84.02
2023-02-28T21:21:35.122Z,84.55
2023-02-28T21:24:01.906Z,84.74
2023-02-28T21:26:29.526Z,84.12
2023-02-28T21:29:01.194Z,84.78
2023-02-28T21:31:31.288Z,85.54
2023-02-28T21:33:59.360Z,84.59
2023-02-28T21:36:29.860Z,83.95
2023-02-28T21:39:00.093Z,84.61
2023-02-28T21:41:28.398Z,83.31
2023-02-28T21:43:55.729Z,83.56
2023-02-28T21:46:25.570Z,84.94
2023-02-28T21:48:52.762Z,86.10
2023-02-28T21:51:27.867Z,85.63
2023-02-28T21:53:54.675Z,85.64
2023-02-28T21:56:24.600Z,86.31
2023-02-28T21:58:51.536Z,85.87
2023-02-28T22:01:20.413Z,86.32
2023-02-28T22:03:48.847Z,85.59
2023-02-28T22:06:28.515Z,85.90
2023-02-28T22:08:58.602Z,85.12
2023-02-28T22:11:25.984Z,85.10
2023-02-28T22:13:57.040Z,85.74
2023-02-28T22:16:26.087Z,86.60
2023-02-28T22:18:53.475Z,87.06
2023-02-28T22:21:23.717Z,86.33
2023-02-28T22:23:50.888Z,86.02
2023-02-28T22:26:20.687Z,85.30
2023-02-28T22:28:47.751Z,85.64
2023-02-28T22:31:29.533Z,85.26
2023-02-28T22:33:58.798Z,85.96
2023-02-28T22:36:25.942Z,86.19
2023-02-28T22:38:53.266Z,86.14
2023-02-28T22:41:22.351Z,86.04
2023-02-28T22:43:57.648Z,87.30
2023-02-28T22:46:25.748Z,87.16
2023-02-28T22:48:52.692Z,87.61
2023-02-28T22:51:22.348Z,87.90
2023-02-28T22:53:50.925Z,88.99
2023-02-28T22:56:19.390Z,89.46
2023-02-28T22:58:54.179Z,88.59
2023-02-28T23:01:22.455Z,88.06
2023-02-28T23:03:49.519Z,87.31
2023-02-28T23:06:26.978Z,88.32
2023-02-28T23:08:56.736Z,88.03
2023-02-28T23:11:26.104Z,88.91
2023-02-28T23:13:59.087Z,89.45
2023-02-28T23:16:35.873Z,88.27
2023-02-28T23:19:05.597Z,90.34
2023-02-28T23:21:32.938Z,90.86
2023-02-28T23:24:02.939Z,91.14
2023-02-28T23:26:31.675Z,90.81
2023-02-28T23:28:59.491Z,90.53
2023-02-28T23:31:26.163Z,89.54
2023-02-28T23:33:52.879Z,90.57
2023-02-28T23:36:19.627Z,89.85
2023-02-28T23:38:48.297Z,90.39
2023-02-28T23:41:15.744Z,90.36
2023-02-28T23:43:42.845Z,91.28
2023-02-28T23:46:10.478Z,91.29
2023-02-28T23:48:37.610Z,92.15
2023-02-28T23:51:09.984Z,92.09
2023-02-28T23:53:41.408Z,91.10
2023-02-28T23:56:10.255Z,90.98
2023-02-28T23:58:37.118Z,91.87
